This is the latest recevied weather packets stored in our database for station/object SK4BW-10. If no packets are shown the sender has not sent any weather packets the latest 10 day(s).
| Time | Temp. | Humidity | Pressure | Rain* | Wind** | Luminosity | Snow |
|---|---|---|---|---|---|---|---|
| 1777876910 | 5° C | 97% | 1002.4 hPa | - | - | - | - |
| 1777876008 | 5° C | 97% | 1002.3 hPa | - | - | - | - |
| 1777875108 | 4.44° C | 96% | 1002.5 hPa | - | - | - | - |
| 1777874207 | 4.44° C | 95% | 1002.6 hPa | - | - | - | - |
| 1777873305 | 5° C | 92% | 1002.7 hPa | - | - | - | - |
| 1777872404 | 3.89° C | 99% | 1002.7 hPa | - | - | - | - |
| 1777871503 | 3.89° C | 97% | 1002.7 hPa | - | - | - | - |
| 1777870602 | 3.89° C | 100% | 1002.8 hPa | - | - | - | - |
| 1777869701 | 3.89° C | 100% | 1003 hPa | - | - | - | - |
| 1777868800 | 3.89° C | 100% | 1003.1 hPa | - | - | - | - |
| 1777867899 | 3.33° C | 100% | 1003.4 hPa | - | - | - | - |
| 1777866998 | 3.33° C | 100% | 1003.4 hPa | - | - | - | - |
| 1777866097 | 3.33° C | 100% | 1003.5 hPa | - | - | - | - |
| 1777865196 | 3.33° C | 100% | 1003.6 hPa | - | - | - | - |
| 1777864295 | 3.33° C | 100% | 1003.6 hPa | - | - | - | - |
| 1777863394 | 3.33° C | 100% | 1003.9 hPa | - | - | - | - |
| 1777862493 | 3.33° C | 100% | 1004 hPa | - | - | - | - |
| 1777861592 | 3.33° C | 100% | 1003.9 hPa | - | - | - | - |
| 1777860691 | 3.33° C | 100% | 1004 hPa | - | - | - | - |
| 1777859790 | 3.33° C | 99% | 1004.2 hPa | - | - | - | - |
| 1777858889 | 3.89° C | 100% | 1004.4 hPa | - | - | - | - |
| 1777857989 | 3.89° C | 100% | 1004.6 hPa | - | - | - | - |
| 1777857088 | 3.89° C | 100% | 1004.8 hPa | - | - | - | - |
| 1777856187 | 3.89° C | 100% | 1004.9 hPa | - | - | - | - |
| 1777855286 | 3.89° C | 100% | 1005 hPa | - | - | - | - |
* Rain since midnight (hover to see other rain measurements)
** Current wind speed in m/s (hover to see current wind gust speed)